Time;durP1;ratioP1;P1;durP2;ratioP2;P2;SDS_P1;SDS_P2;PMS_P1;PMS_P2;Temp;Humidity;BMP_temperature;BMP_pressure;BME280_temperature;BME280_humidity;BME280_pressure;Samples;Min_cycle;Max_cycle;Signal;HPM_P1;HPM_P2
2022/10/13 00:02:20;;;;;;;20.93;12.67;;;;;;;10.89;93.56;101757.88;5242619;28;20030;-75
2022/10/13 00:04:51;;;;;;;18.43;13.07;;;;;;;10.89;93.38;101755.25;5242436;28;20069;-76
2022/10/13 00:07:22;;;;;;;23.07;12.13;;;;;;;10.86;93.71;101750.03;5242634;28;20053;-74
2022/10/13 00:09:54;;;;;;;16.40;13.07;;;;;;;10.84;94.08;101749.16;5242698;28;20034;-76
2022/10/13 00:12:25;;;;;;;23.73;13.53;;;;;;;10.85;93.91;101748.31;5242457;28;20041;-75
2022/10/13 00:14:57;;;;;;;25.00;13.07;;;;;;;10.83;94.13;101741.34;5242524;28;20124;-76
2022/10/13 00:17:28;;;;;;;19.93;13.43;;;;;;;10.80;94.13;101738.72;5240605;28;20029;-75
2022/10/13 00:19:59;;;;;;;21.60;13.27;;;;;;;10.79;94.03;101731.75;5241741;28;20481;-75
2022/10/13 00:22:31;;;;;;;21.40;12.37;;;;;;;10.74;94.20;101732.63;5240050;28;20550;-76
2022/10/13 00:25:03;;;;;;;22.42;13.75;;;;;;;10.71;94.51;101730.03;5240179;28;20022;-75
2022/10/13 00:27:34;;;;;;;24.40;13.60;;;;;;;10.71;94.87;101736.97;5241995;28;20435;-76
2022/10/13 00:30:06;;;;;;;25.73;13.50;;;;;;;10.69;94.89;101733.47;5241330;28;20029;-75
2022/10/13 00:32:38;;;;;;;18.83;13.23;;;;;;;10.68;95.01;101734.38;5241840;28;20032;-75
2022/10/13 00:35:09;;;;;;;24.50;12.53;;;;;;;10.67;95.34;101727.41;5242601;28;20032;-75
2022/10/13 00:37:40;;;;;;;22.97;13.13;;;;;;;10.71;95.08;101732.63;5242372;28;20037;-75
2022/10/13 00:40:12;;;;;;;19.03;12.53;;;;;;;10.75;94.88;101728.28;5241860;28;20033;-76
2022/10/13 00:42:43;;;;;;;23.43;14.03;;;;;;;10.71;94.93;101723.94;5241871;28;20075;-75
2022/10/13 00:45:24;;;;;;;19.33;12.50;;;;;;;10.70;95.36;101724.81;5242104;28;20034;-75
2022/10/13 00:47:59;;;;;;;25.15;13.75;;;;;;;10.71;95.06;101726.56;5241717;28;20481;-75
2022/10/13 00:50:36;;;;;;;23.13;14.18;;;;;;;10.72;95.20;101720.44;5241447;28;20025;-76
2022/10/13 00:53:09;;;;;;;30.98;12.75;;;;;;;10.76;95.22;101727.41;5241885;28;20033;-75
2022/10/13 00:55:43;;;;;;;23.85;13.48;;;;;;;10.77;95.35;101721.34;5243082;28;20029;-75
2022/10/13 00:58:18;;;;;;;21.73;12.40;;;;;;;10.79;94.95;101716.09;5242872;28;20148;-75
2022/10/13 01:00:51;;;;;;;22.92;12.77;;;;;;;10.81;94.93;101720.47;5241878;28;20025;-75
2022/10/13 01:03:24;;;;;;;24.20;13.23;;;;;;;10.84;94.89;101732.66;5241938;28;20097;-75
2022/10/13 01:05:59;;;;;;;24.42;13.55;;;;;;;10.79;95.09;101721.31;5241521;28;20078;-76
2022/10/13 01:08:30;;;;;;;22.67;13.45;;;;;;;10.77;94.87;101723.97;5242167;28;20496;-76
2022/10/13 01:11:02;;;;;;;22.10;12.83;;;;;;;10.76;94.94;101722.22;5241831;28;20041;-75
2022/10/13 01:13:47;;;;;;;25.73;12.80;;;;;;;10.73;95.26;101717.84;5241857;28;20025;-75
2022/10/13 01:16:22;;;;;;;28.58;14.05;;;;;;;10.74;95.10;101721.34;5241863;28;20115;-75
2022/10/13 01:19:11;;;;;;;25.40;13.85;;;;;;;10.77;94.96;101718.75;5241247;28;20121;-75
2022/10/13 01:22:06;;;;;;;23.73;12.57;;;;;;;10.75;95.12;101718.75;5241671;28;20025;-74
2022/10/13 01:24:51;;;;;;;26.75;12.98;;;;;;;10.74;95.27;101721.34;5241247;28;20076;-74
2022/10/13 01:28:13;;;;;;;27.63;14.02;;;;;;;10.69;95.75;101717.84;5241593;28;20041;-75
2022/10/13 01:31:02;;;;;;;24.80;12.32;;;;;;;10.71;96.05;101718.72;5218636;28;20034;-75
2022/10/13 01:33:54;;;;;;;22.30;13.00;;;;;;;10.68;96.15;101716.09;5240178;28;20037;-74
2022/10/13 01:36:34;;;;;;;20.02;12.13;;;;;;;10.70;96.30;101716.97;5241767;28;20465;-74
2022/10/13 01:39:21;;;;;;;28.33;14.55;;;;;;;10.68;96.37;101719.56;5241849;28;20033;-74
2022/10/13 01:42:00;;;;;;;25.13;12.95;;;;;;;10.69;96.62;101715.22;5241784;28;20112;-75
2022/10/13 01:44:37;;;;;;;26.88;14.23;;;;;;;10.71;96.59;101711.75;5241662;28;20034;-74
2022/10/13 01:47:11;;;;;;;22.77;13.00;;;;;;;10.72;96.79;101707.41;5241415;28;20029;-74
2022/10/13 01:49:44;;;;;;;29.60;13.07;;;;;;;10.72;96.63;101704.78;5240899;28;20025;-73
2022/10/13 01:52:19;;;;;;;26.13;13.13;;;;;;;10.74;96.71;101706.56;5243549;28;20033;-74
2022/10/13 01:54:52;;;;;;;29.05;14.05;;;;;;;10.74;96.97;101705.69;5245359;28;20441;-74
2022/10/13 01:57:33;;;;;;;23.38;13.30;;;;;;;10.73;97.10;101696.97;5246378;28;20072;-73
2022/10/13 02:00:16;;;;;;;24.77;14.52;;;;;;;10.70;97.43;101693.50;5245749;28;20457;-73
2022/10/13 02:03:12;;;;;;;24.70;13.60;;;;;;;10.76;97.50;101690.91;5244270;28;20040;-73
2022/10/13 02:05:49;;;;;;;24.80;13.43;;;;;;;10.74;97.31;101690.91;5245364;28;20360;-74
2022/10/13 02:08:38;;;;;;;25.85;13.27;;;;;;;10.75;97.79;101690.06;5243850;28;20022;-73
2022/10/13 02:11:15;;;;;;;26.55;12.98;;;;;;;10.80;97.49;101681.34;5245320;28;20033;-73
2022/10/13 02:14:00;;;;;;;24.45;13.23;;;;;;;10.80;97.81;101681.34;5244932;28;20029;-73
2022/10/13 02:16:37;;;;;;;29.63;13.88;;;;;;;10.84;97.50;101677.88;5245003;28;20059;-73
2022/10/13 02:19:11;;;;;;;29.23;13.68;;;;;;;10.88;97.50;101680.50;5244333;28;20030;-74
2022/10/13 02:21:44;;;;;;;24.63;13.55;;;;;;;10.90;97.09;101677.84;5244741;28;20117;-73
2022/10/13 02:24:15;;;;;;;21.80;12.93;;;;;;;10.91;97.05;101670.03;5244649;28;20392;-73
2022/10/13 02:26:47;;;;;;;25.67;12.23;;;;;;;10.89;96.99;101663.09;5244908;28;20042;-74
2022/10/13 02:29:18;;;;;;;27.33;12.80;;;;;;;10.89;97.35;101655.28;5244647;28;20049;-74
2022/10/13 02:31:53;;;;;;;27.40;13.63;;;;;;;10.90;97.50;101667.41;5244583;28;20079;-74
2022/10/13 02:34:25;;;;;;;22.08;12.30;;;;;;;10.87;97.63;101663.09;5244525;28;20029;-74
2022/10/13 02:36:56;;;;;;;25.07;13.70;;;;;;;10.89;97.61;101656.13;5244458;28;20036;-74
2022/10/13 02:39:27;;;;;;;23.90;13.17;;;;;;;10.91;97.71;101664.81;5244402;28;20496;-73
2022/10/13 02:41:59;;;;;;;32.77;13.17;;;;;;;10.93;97.43;101657.88;5242922;28;20037;-74
2022/10/13 02:44:30;;;;;;;20.57;12.70;;;;;;;10.98;97.32;101655.28;5244423;28;20377;-74
2022/10/13 02:47:02;;;;;;;29.23;13.17;;;;;;;10.99;97.33;101658.75;5244245;28;20392;-74
2022/10/13 02:49:33;;;;;;;21.13;12.63;;;;;;;11.04;97.00;101655.25;5242619;28;20029;-73
2022/10/13 02:52:04;;;;;;;23.87;13.40;;;;;;;11.06;96.94;101650.03;5244157;28;20083;-73
2022/10/13 02:54:36;;;;;;;30.23;13.43;;;;;;;11.05;96.82;101650.91;5243997;28;20113;-73
2022/10/13 02:57:07;;;;;;;22.17;13.23;;;;;;;11.03;96.97;101652.63;5244118;28;20033;-73
2022/10/13 02:59:38;;;;;;;23.80;13.17;;;;;;;11.01;96.95;101646.56;5242589;28;20029;-74
2022/10/13 03:02:10;;;;;;;24.00;13.40;;;;;;;10.99;96.96;101643.09;5243838;28;20034;-73
2022/10/13 03:04:41;;;;;;;16.70;12.47;;;;;;;10.95;97.12;101650.91;5243259;28;20069;-73
2022/10/13 03:07:12;;;;;;;21.00;13.40;;;;;;;10.94;97.50;101654.38;5243867;28;20030;-74
2022/10/13 03:09:44;;;;;;;25.13;12.60;;;;;;;10.93;97.46;101650.06;5243971;28;20033;-73
2022/10/13 03:12:15;;;;;;;19.10;12.53;;;;;;;10.92;97.49;101650.06;5243828;28;20049;-73
2022/10/13 03:14:46;;;;;;;16.80;11.00;;;;;;;10.93;97.37;101643.94;5243763;28;20036;-74
2022/10/13 03:17:18;;;;;;;17.37;12.67;;;;;;;10.93;97.74;101633.50;5243758;28;20033;-75
2022/10/13 03:19:49;;;;;;;20.50;11.77;;;;;;;10.94;97.78;101627.44;5243163;28;20039;-74
2022/10/13 03:22:20;;;;;;;18.93;12.03;;;;;;;10.90;97.66;101630.91;5243945;28;20033;-75
2022/10/13 03:24:52;;;;;;;19.03;12.73;;;;;;;10.91;97.39;101632.66;5243559;28;20034;-75
2022/10/13 03:27:23;;;;;;;23.30;11.93;;;;;;;10.91;97.69;101637.88;5244180;28;20045;-75
2022/10/13 03:29:55;;;;;;;21.50;13.10;;;;;;;10.91;97.88;101630.03;5243431;28;20025;-75
2022/10/13 03:32:29;;;;;;;25.50;13.03;;;;;;;10.91;97.94;101638.72;5243401;28;20030;-75
2022/10/13 03:35:01;;;;;;;17.15;11.35;;;;;;;10.94;97.99;101627.44;5243350;28;20025;-75
2022/10/13 03:37:32;;;;;;;23.27;12.03;;;;;;;10.97;97.99;101637.00;5243455;28;20473;-76
2022/10/13 03:40:05;;;;;;;17.80;12.17;;;;;;;10.98;97.95;101623.09;5243308;28;20033;-76
2022/10/13 03:42:37;;;;;;;19.73;12.70;;;;;;;10.98;97.94;101631.78;5243467;28;20030;-76
2022/10/13 03:45:09;;;;;;;22.43;13.30;;;;;;;10.99;98.14;101625.69;5243189;28;20079;-75
2022/10/13 03:47:40;;;;;;;20.10;12.88;;;;;;;11.01;97.83;101623.09;5241781;28;20029;-74
2022/10/13 03:50:12;;;;;;;22.50;12.33;;;;;;;11.02;97.81;101623.09;5242623;28;20086;-74
2022/10/13 03:52:43;;;;;;;22.90;12.37;;;;;;;11.06;97.64;101613.50;5243340;28;20152;-73
2022/10/13 03:55:14;;;;;;;21.57;13.43;;;;;;;11.06;97.63;101618.72;5243039;28;20094;-73
2022/10/13 03:57:46;;;;;;;20.53;13.50;;;;;;;11.03;97.67;101614.38;5241694;28;20038;-73
2022/10/13 04:00:17;;;;;;;21.37;12.77;;;;;;;11.04;97.81;101600.47;5243051;28;20033;-73
2022/10/13 04:02:49;;;;;;;17.83;12.57;;;;;;;11.07;97.81;101608.28;5242736;28;20036;-75
2022/10/13 04:05:20;;;;;;;24.47;12.80;;;;;;;11.06;97.57;101605.66;5242872;28;20037;-74
2022/10/13 04:07:51;;;;;;;18.13;11.67;;;;;;;11.07;97.55;101594.38;5242677;28;20037;-75
2022/10/13 04:10:23;;;;;;;17.73;11.97;;;;;;;11.07;97.36;101595.22;5241526;28;20030;-75
2022/10/13 04:12:54;;;;;;;21.37;12.77;;;;;;;11.11;97.66;101593.50;5242714;28;20107;-76
2022/10/13 04:15:25;;;;;;;23.40;13.17;;;;;;;11.12;97.47;101597.84;5242551;28;20038;-75
2022/10/13 04:17:57;;;;;;;21.43;12.30;;;;;;;11.13;97.40;101597.84;5242477;28;20484;-75
2022/10/13 04:20:28;;;;;;;20.60;12.20;;;;;;;11.15;97.25;101594.38;5242078;28;20132;-75
2022/10/13 04:22:59;;;;;;;21.33;13.40;;;;;;;11.13;97.32;101603.06;5242612;28;20029;-75
2022/10/13 04:25:36;;;;;;;24.93;12.50;;;;;;;11.15;97.34;101599.59;5242070;28;20450;-75
2022/10/13 04:28:10;;;;;;;23.38;13.48;;;;;;;11.15;97.66;101576.09;5242458;28;20491;-75
2022/10/13 04:30:41;;;;;;;26.83;14.13;;;;;;;11.19;97.40;101581.31;5242406;28;20144;-75
2022/10/13 04:33:13;;;;;;;23.13;12.67;;;;;;;11.19;97.37;101575.19;5241688;28;20421;-75
2022/10/13 04:35:44;;;;;;;24.40;12.87;;;;;;;11.19;97.22;101572.59;5221776;28;20033;-74
2022/10/13 04:38:15;;;;;;;23.93;13.53;;;;;;;11.19;97.47;101578.69;5221700;28;20026;-75
2022/10/13 04:40:47;;;;;;;22.57;12.53;;;;;;;11.21;97.22;101586.53;5221305;28;20041;-76
2022/10/13 04:43:18;;;;;;;21.90;13.27;;;;;;;11.20;97.00;101588.25;5221508;28;20449;-76
2022/10/13 04:45:49;;;;;;;19.60;13.43;;;;;;;11.18;97.17;101570.88;5221508;28;20030;-77
2022/10/13 04:48:20;;;;;;;17.03;12.07;;;;;;;11.19;97.05;101583.03;5221135;28;20041;-77
2022/10/13 04:51:04;;;;;;;24.53;13.57;;;;;;;11.17;96.99;101569.97;5222284;28;20485;-77
2022/10/13 04:53:36;;;;;;;27.00;13.25;;;;;;;11.20;96.70;101574.34;5243722;28;20032;-78
2022/10/13 04:56:11;;;;;;;23.00;12.43;;;;;;;11.18;96.78;101590.00;5242401;28;20033;-76
2022/10/13 04:58:44;;;;;;;15.68;11.65;;;;;;;11.17;97.02;101583.03;5248186;28;20021;-76
2022/10/13 05:01:19;;;;;;;18.30;11.52;;;;;;;11.11;97.44;101583.94;5246677;28;20457;-78
2022/10/13 05:03:53;;;;;;;22.15;12.25;;;;;;;11.10;97.67;101574.34;5240486;28;20030;-77
2022/10/13 05:06:28;;;;;;;24.15;12.25;;;;;;;11.08;97.83;101573.50;5241962;28;20029;-76
2022/10/13 05:08:59;;;;;;;17.52;11.73;;;;;;;11.07;97.74;101566.53;5241770;28;20037;-76
2022/10/13 05:11:31;;;;;;;18.97;12.40;;;;;;;11.03;97.75;101574.38;5241947;28;20029;-77
2022/10/13 05:14:02;;;;;;;23.47;13.10;;;;;;;11.02;97.76;101573.50;5241945;28;20030;-76
2022/10/13 05:16:34;;;;;;;24.57;12.73;;;;;;;11.05;98.01;101577.88;5241861;28;20040;-76
2022/10/13 05:19:05;;;;;;;19.33;12.37;;;;;;;11.05;97.85;101573.50;5241293;28;20084;-76
2022/10/13 05:21:37;;;;;;;24.60;12.20;;;;;;;11.04;97.73;101568.28;5241953;28;20108;-76
2022/10/13 05:24:12;;;;;;;;;;;;;;;11.10;97.24;101581.31;5241899;28;20034;-77
2022/10/13 05:26:43;;;;;;;21.60;12.75;;;;;;;11.01;97.78;101571.78;5242619;28;20279;-76
2022/10/13 05:29:16;;;;;;;21.00;13.10;;;;;;;11.00;97.98;101575.25;5245524;28;20041;-76
2022/10/13 05:31:47;;;;;;;;;;;;;;;11.05;97.17;101583.94;5246450;28;20032;-77
2022/10/13 05:34:18;;;;;;;24.73;13.50;;;;;;;10.99;97.88;101578.72;5245807;28;20280;-75
2022/10/13 05:36:50;;;;;;;24.47;14.40;;;;;;;10.98;98.39;101584.84;5245677;28;20037;-76
2022/10/13 05:39:21;;;;;;;20.93;12.87;;;;;;;10.97;98.20;101574.41;5245650;28;20465;-76
2022/10/13 05:41:53;;;;;;;25.63;13.13;;;;;;;10.96;98.21;101578.72;5245981;28;20030;-76
2022/10/13 05:44:25;;;;;;;20.70;13.33;;;;;;;10.98;98.42;101579.63;5245501;28;20117;-76
2022/10/13 05:46:56;;;;;;;19.33;13.25;;;;;;;10.95;98.30;101571.81;5245412;28;20484;-75
2022/10/13 05:49:28;;;;;;;26.53;13.93;;;;;;;10.94;98.64;101572.66;5244979;28;20080;-75
2022/10/13 05:52:05;;;;;;;23.67;12.87;;;;;;;10.94;98.85;101570.06;5245113;28;20052;-75
2022/10/13 05:54:45;;;;;;;23.17;14.13;;;;;;;10.95;98.82;101572.66;5245765;28;20499;-75
2022/10/13 05:57:25;;;;;;;28.83;13.55;;;;;;;10.98;98.77;101578.72;5245494;28;20392;-75
2022/10/13 06:00:04;;;;;;;23.35;14.63;;;;;;;10.99;98.54;101580.47;5245844;28;20033;-76
2022/10/13 06:02:42;;;;;;;23.52;12.93;;;;;;;11.03;98.42;101585.69;5245985;28;20515;-76
2022/10/13 06:05:18;;;;;;;26.48;13.85;;;;;;;11.04;98.37;101576.13;5245692;28;20057;-75
2022/10/13 06:07:50;;;;;;;26.42;14.30;;;;;;;11.09;98.34;101579.56;5245639;28;20029;-75
2022/10/13 06:10:22;;;;;;;25.50;13.70;;;;;;;11.13;98.20;101569.13;5245240;28;20040;-75
2022/10/13 06:12:53;;;;;;;23.55;14.10;;;;;;;11.15;98.30;101566.53;5245258;28;20061;-76
2022/10/13 06:15:24;;;;;;;23.17;13.63;;;;;;;11.14;97.92;101562.19;5244597;28;20068;-76
2022/10/13 06:17:56;;;;;;;27.70;13.67;;;;;;;11.19;97.86;101564.75;5244564;28;20029;-75
2022/10/13 06:20:27;;;;;;;22.23;13.17;;;;;;;11.21;97.77;101552.59;5243661;28;20033;-75
2022/10/13 06:22:58;;;;;;;31.57;13.87;;;;;;;11.20;97.56;101551.72;5244519;28;20036;-75
2022/10/13 06:25:30;;;;;;;20.70;14.00;;;;;;;11.23;97.41;101545.63;5244241;28;20134;-76
2022/10/13 06:28:02;;;;;;;22.57;13.13;;;;;;;11.26;97.24;101556.06;5244031;28;20060;-76
2022/10/13 06:30:34;;;;;;;19.48;13.05;;;;;;;11.28;97.01;101554.31;5244210;28;20037;-76
2022/10/13 06:33:05;;;;;;;26.63;14.17;;;;;;;11.30;96.96;101565.59;5244287;28;20566;-76
2022/10/13 06:35:36;;;;;;;26.80;13.80;;;;;;;11.32;97.01;101561.25;5244249;28;20022;-76
2022/10/13 06:38:08;;;;;;;27.60;12.90;;;;;;;11.34;96.73;101556.03;5242933;28;20030;-76
2022/10/13 06:40:40;;;;;;;22.50;12.93;;;;;;;11.38;96.50;101552.53;5244135;28;20025;-75
2022/10/13 06:43:11;;;;;;;18.90;12.27;;;;;;;11.40;96.14;101562.09;5242865;28;20041;-76
2022/10/13 06:45:42;;;;;;;29.83;14.90;;;;;;;11.42;96.22;101547.28;5243973;28;20115;-76
2022/10/13 06:48:14;;;;;;;21.37;13.60;;;;;;;11.42;96.50;101551.66;5244065;28;20041;-76
2022/10/13 06:50:46;;;;;;;28.37;15.90;;;;;;;11.49;96.05;101566.41;5243317;28;20060;-75
2022/10/13 06:53:17;;;;;;;26.08;14.02;;;;;;;11.54;96.31;101563.78;5243588;28;20519;-76
2022/10/13 06:55:48;;;;;;;25.07;14.80;;;;;;;11.59;95.69;101559.41;5243990;28;20125;-76
2022/10/13 06:58:20;;;;;;;24.80;15.03;;;;;;;11.62;95.87;101547.22;5243170;28;20116;-76
2022/10/13 07:00:51;;;;;;;32.93;15.43;;;;;;;11.65;95.77;101559.38;5244052;28;20037;-76
2022/10/13 07:03:24;;;;;;;22.87;14.13;;;;;;;11.67;95.16;101561.13;5243789;28;20026;-76
2022/10/13 07:06:04;;;;;;;19.33;14.45;;;;;;;11.67;95.37;101549.78;5243675;28;20022;-76
2022/10/13 07:08:35;;;;;;;22.50;15.02;;;;;;;11.64;95.02;101547.19;5243266;28;20140;-76
2022/10/13 07:11:12;;;;;;;23.93;15.30;;;;;;;11.66;95.34;101554.16;5243921;28;20112;-76
2022/10/13 07:13:44;;;;;;;24.15;15.70;;;;;;;11.66;94.70;101558.50;5243545;28;20026;-76
2022/10/13 07:16:15;;;;;;;26.03;14.90;;;;;;;11.68;95.02;101554.13;5243479;28;20028;-76
2022/10/13 07:18:47;;;;;;;21.87;16.17;;;;;;;11.73;94.61;101556.72;5243361;28;20397;-76
2022/10/13 07:21:18;;;;;;;25.70;16.50;;;;;;;11.76;94.76;101567.16;5242883;28;20485;-75
2022/10/13 07:23:50;;;;;;;26.57;17.23;;;;;;;11.80;94.86;101558.41;5243229;28;20037;-75
2022/10/13 07:26:21;;;;;;;24.50;15.37;;;;;;;11.88;94.58;101564.47;5242758;28;20049;-76
2022/10/13 07:28:52;;;;;;;23.33;15.07;;;;;;;11.95;94.44;101550.53;5243175;28;20065;-76
2022/10/13 07:31:24;;;;;;;24.80;16.00;;;;;;;12.02;94.04;101554.84;5243317;28;20535;-76
2022/10/13 07:33:57;;;;;;;24.53;14.90;;;;;;;12.08;93.95;101558.31;5243204;28;20029;-76
2022/10/13 07:36:30;;;;;;;24.42;15.05;;;;;;;12.09;93.21;101560.91;5243485;28;20084;-76
2022/10/13 07:39:02;;;;;;;23.98;16.08;;;;;;;12.13;92.85;101567.84;5243024;28;20033;-76
2022/10/13 07:41:35;;;;;;;30.02;17.00;;;;;;;12.15;92.76;101562.59;5243157;28;20025;-77
2022/10/13 07:44:06;;;;;;;26.63;17.52;;;;;;;12.14;92.92;101563.47;5242946;28;20025;-76
2022/10/13 07:46:38;;;;;;;21.63;15.53;;;;;;;12.20;93.08;101561.72;5242844;28;20045;-76
2022/10/13 07:49:09;;;;;;;22.57;14.90;;;;;;;12.28;92.70;101550.31;5241926;28;20480;-76
2022/10/13 07:51:40;;;;;;;22.90;15.53;;;;;;;12.38;91.78;101557.19;5242510;28;20038;-76
2022/10/13 07:54:12;;;;;;;22.40;15.33;;;;;;;12.50;91.07;101551.88;5242793;28;20043;-76
2022/10/13 07:56:43;;;;;;;25.43;15.03;;;;;;;12.70;91.59;101556.06;5242680;28;20033;-76
2022/10/13 07:59:15;;;;;;;19.90;13.80;;;;;;;12.87;89.89;101559.38;5246218;28;20033;-76
2022/10/13 08:01:47;;;;;;;20.70;14.83;;;;;;;12.97;88.86;101560.16;5243300;28;20040;-76
2022/10/13 08:04:18;;;;;;;23.60;15.13;;;;;;;13.01;88.75;101558.38;5242726;28;20079;-76
2022/10/13 08:06:49;;;;;;;25.90;14.33;;;;;;;12.95;87.65;101549.69;5242179;28;20431;-76
2022/10/13 08:09:21;;;;;;;25.53;14.07;;;;;;;12.95;87.88;101562.78;5241205;28;20460;-76
2022/10/13 08:11:52;;;;;;;23.17;14.47;;;;;;;12.96;88.48;101555.81;5242082;28;20029;-76
2022/10/13 08:14:24;;;;;;;25.30;13.77;;;;;;;12.96;88.01;101558.44;5242602;28;20461;-76
2022/10/13 08:16:56;;;;;;;24.67;14.17;;;;;;;12.88;87.29;101560.25;5242434;28;20120;-76
2022/10/13 08:19:27;;;;;;;25.05;14.32;;;;;;;12.89;87.74;101565.47;5240924;28;20667;-77
2022/10/13 08:21:59;;;;;;;25.67;15.50;;;;;;;12.90;87.74;101556.75;5242051;28;20112;-77
2022/10/13 08:24:30;;;;;;;18.10;12.60;;;;;;;12.92;87.80;101554.97;5242248;28;20037;-76
2022/10/13 08:27:02;;;;;;;20.57;14.10;;;;;;;13.06;87.73;101554.84;5241820;28;20435;-76
2022/10/13 08:29:34;;;;;;;24.55;13.38;;;;;;;13.06;86.42;101544.34;5241788;28;20132;-76
2022/10/13 08:32:06;;;;;;;21.47;13.20;;;;;;;13.30;86.88;101547.59;5242173;28;20121;-76
2022/10/13 08:34:37;;;;;;;23.33;14.43;;;;;;;13.43;86.45;101538.72;5242008;28;20053;-77
2022/10/13 08:37:17;;;;;;;18.97;13.17;;;;;;;13.46;85.42;101541.31;5242030;28;20037;-76
2022/10/13 08:39:48;;;;;;;21.02;12.73;;;;;;;13.50;84.78;101542.13;5242158;28;20037;-77
2022/10/13 08:42:21;;;;;;;21.67;12.83;;;;;;;13.46;85.62;101553.56;5241954;28;20033;-76
2022/10/13 08:45:06;;;;;;;21.52;13.45;;;;;;;13.54;85.50;101548.19;5241895;28;20029;-77
2022/10/13 08:47:43;;;;;;;24.48;13.07;;;;;;;13.53;85.26;101544.72;5242224;28;20368;-76
2022/10/13 08:50:23;;;;;;;19.90;12.57;;;;;;;13.54;84.29;101546.47;5241377;28;20033;-76
2022/10/13 08:52:58;;;;;;;22.10;13.80;;;;;;;13.52;85.31;101545.59;5241513;28;20091;-77
2022/10/13 08:55:55;;;;;;;17.38;12.48;;;;;;;13.57;85.29;101543.81;5241998;28;20121;-77
2022/10/13 08:58:30;;;;;;;22.85;13.05;;;;;;;13.64;84.29;101536.72;5234308;28;20564;-77
2022/10/13 09:01:08;;;;;;;23.25;12.63;;;;;;;13.65;83.86;101541.94;5243848;28;20034;-77
2022/10/13 09:03:54;;;;;;;25.17;13.40;;;;;;;13.65;84.32;101541.94;5242351;28;20033;-76
2022/10/13 09:06:31;;;;;;;19.67;12.52;;;;;;;13.67;84.19;101534.91;5241992;28;20048;-76
2022/10/13 09:09:06;;;;;;;22.45;13.65;;;;;;;13.67;84.06;101526.19;5241710;28;20033;-77
2022/10/13 09:11:40;;;;;;;24.65;12.80;;;;;;;13.64;84.25;101527.09;5242009;28;20026;-77
2022/10/13 09:14:30;;;;;;;23.05;12.57;;;;;;;13.63;84.61;101533.22;5241597;28;20032;-77
2022/10/13 09:17:18;;;;;;;18.73;12.43;;;;;;;13.66;84.51;101534.94;5241576;28;20056;-77
2022/10/13 09:20:02;;;;;;;18.67;13.07;;;;;;;13.50;84.70;101532.50;5240634;28;20120;-76
2022/10/13 09:22:38;;;;;;;21.67;13.20;;;;;;;13.45;84.47;101536.94;5241517;28;20056;-77
2022/10/13 09:25:21;;;;;;;21.70;13.55;;;;;;;13.39;85.15;101525.69;5241200;28;20036;-76
2022/10/13 09:28:10;;;;;;;24.08;13.05;;;;;;;13.45;85.22;101534.31;5241500;28;20056;-77
2022/10/13 09:30:43;;;;;;;20.52;13.60;;;;;;;13.42;84.14;101534.38;5241427;28;20037;-76
2022/10/13 09:33:20;;;;;;;21.65;14.35;;;;;;;13.45;84.17;101531.72;5241302;28;20030;-76
2022/10/13 09:35:57;;;;;;;19.42;13.32;;;;;;;13.44;84.24;101519.53;5241326;28;20022;-76
2022/10/13 09:38:29;;;;;;;23.05;13.38;;;;;;;13.61;85.44;101515.81;5241243;28;20528;-77
2022/10/13 09:41:09;;;;;;;22.00;14.53;;;;;;;13.68;84.33;101522.69;5241283;28;20121;-77
2022/10/13 09:43:46;;;;;;;22.05;14.27;;;;;;;13.66;84.14;101527.06;5241209;28;20026;-76
2022/10/13 09:46:26;;;;;;;18.50;13.55;;;;;;;13.57;84.29;101521.94;5240963;28;20025;-76
2022/10/13 09:49:20;;;;;;;25.13;14.43;;;;;;;13.60;85.05;101527.16;5239946;28;20102;-77
2022/10/13 09:52:02;;;;;;;24.17;14.45;;;;;;;13.48;84.67;101528.19;5240994;28;20045;-75
2022/10/13 09:54:39;;;;;;;21.67;12.10;;;;;;;13.37;85.83;101523.09;5241583;28;20083;-76
2022/10/13 09:57:44;;;;;;;22.35;13.63;;;;;;;13.30;87.27;101518.78;5241016;28;20033;-76
2022/10/13 10:00:22;;;;;;;18.13;12.82;;;;;;;13.22;87.59;101518.88;5241506;28;20132;-74
2022/10/13 10:03:34;;;;;;;21.10;12.93;;;;;;;13.23;88.90;101512.75;5240904;28;20487;-74
2022/10/13 10:06:06;;;;;;;23.33;13.73;;;;;;;13.17;88.75;101525.94;5241025;28;20112;-74
2022/10/13 10:09:02;;;;;;;25.48;13.90;;;;;;;13.18;89.13;101513.69;5241056;28;20460;-75
2022/10/13 10:11:44;;;;;;;24.10;14.13;;;;;;;13.06;89.11;101507.72;5241259;28;20460;-74
2022/10/13 10:14:29;;;;;;;23.20;14.93;;;;;;;13.04;90.36;101506.88;5244362;28;20104;-74
2022/10/13 10:17:36;;;;;;;18.83;13.13;;;;;;;13.06;89.68;101517.34;5245111;28;20025;-74
2022/10/13 10:20:26;;;;;;;21.48;13.45;;;;;;;12.97;90.69;101499.97;5180473;28;20494;-74
2022/10/13 10:23:03;;;;;;;22.63;13.18;;;;;;;12.89;90.17;101501.81;5241807;28;20477;-75
2022/10/13 10:25:41;;;;;;;20.58;13.45;;;;;;;12.90;91.07;101501.78;5244880;28;20306;-74
2022/10/13 10:28:35;;;;;;;19.55;12.65;;;;;;;12.96;91.55;101495.63;5245657;28;20485;-74
2022/10/13 10:31:24;;;;;;;18.63;13.55;;;;;;;12.99;91.44;101500.81;5244414;28;20491;-75
2022/10/13 10:34:16;;;;;;;20.77;13.57;;;;;;;13.08;92.19;101495.47;5244103;28;20041;-75
2022/10/13 10:37:18;;;;;;;21.08;12.70;;;;;;;13.24;92.00;101505.78;5244697;28;20029;-75
2022/10/13 10:40:14;;;;;;;23.10;13.90;;;;;;;13.35;92.68;101503.03;5244295;28;20121;-75
2022/10/13 10:42:51;;;;;;;21.40;13.75;;;;;;;13.45;91.50;101495.03;5244357;28;20033;-74
2022/10/13 10:45:25;;;;;;;23.45;12.88;;;;;;;13.53;92.00;101499.31;5244168;28;20145;-75
2022/10/13 10:48:01;;;;;;;20.30;12.30;;;;;;;13.57;90.53;101499.28;5244016;28;20534;-75
2022/10/13 10:50:34;;;;;;;19.77;12.52;;;;;;;13.57;90.96;101499.28;5243529;28;20377;-75
2022/10/13 10:53:12;;;;;;;17.80;11.65;;;;;;;13.64;91.80;101498.28;5244070;28;20372;-75
2022/10/13 10:56:02;;;;;;;20.58;12.98;;;;;;;13.74;90.99;101498.16;5244017;28;20116;-75
2022/10/13 10:58:51;;;;;;;16.20;11.77;;;;;;;13.77;90.65;101498.13;5244306;28;20105;-75
2022/10/13 11:01:30;;;;;;;28.27;11.50;;;;;;;13.74;90.91;101492.91;5243915;28;20045;-75
2022/10/13 11:04:07;;;;;;;22.75;11.88;;;;;;;13.77;89.17;101485.88;5243809;28;20037;-75
2022/10/13 11:06:38;;;;;;;17.45;11.15;;;;;;;13.70;88.23;101476.38;5243710;28;20021;-75
2022/10/13 11:09:10;;;;;;;19.67;11.70;;;;;;;13.82;88.67;101480.56;5243393;28;20037;-75
2022/10/13 11:11:42;;;;;;;16.57;11.20;;;;;;;13.86;88.47;101477.00;5244061;28;20026;-75
2022/10/13 11:14:28;;;;;;;17.93;11.80;;;;;;;13.99;89.01;101473.31;5243230;28;20025;-75
2022/10/13 11:17:14;;;;;;;28.02;12.32;;;;;;;14.04;88.77;101475.84;5243935;28;20113;-75
2022/10/13 11:19:47;;;;;;;17.13;10.80;;;;;;;13.94;88.96;101474.25;5241679;28;20098;-75
2022/10/13 11:22:21;;;;;;;15.63;11.52;;;;;;;13.84;89.36;101476.16;5243510;28;20036;-75
2022/10/13 11:24:55;;;;;;;18.92;15.00;;;;;;;13.75;90.67;101471.94;5242586;28;20041;-74
2022/10/13 11:27:40;;;;;;;32.50;20.58;;;;;;;13.72;90.88;101469.34;5243308;28;20053;-74
2022/10/13 11:30:46;;;;;;;21.50;12.95;;;;;;;13.62;90.66;101462.50;5243301;28;20112;-74
2022/10/13 11:33:38;;;;;;;16.48;11.63;;;;;;;13.68;91.71;101465.03;5243838;28;20028;-74
2022/10/13 11:36:28;;;;;;;17.52;13.07;;;;;;;13.72;91.15;101463.22;5243438;28;20036;-74
2022/10/13 11:39:26;;;;;;;22.92;19.08;;;;;;;13.75;91.94;101458.84;5243000;28;20033;-74
2022/10/13 11:42:10;;;;;;;17.73;11.40;;;;;;;13.72;91.42;101452.75;5219948;28;20080;-74
2022/10/13 11:44:53;;;;;;;22.42;19.98;;;;;;;13.65;91.32;101454.59;5243264;28;20029;-74
2022/10/13 11:47:56;;;;;;;14.82;12.27;;;;;;;13.67;91.19;101463.31;5242768;28;20034;-74
2022/10/13 11:50:47;;;;;;;19.73;9.23;;;;;;;13.63;90.73;101445.91;5242215;28;20029;-73